sensor_id;sensor_type;location;lat;lon;timestamp;temperature;humidity
32215;DHT22;18708;53.124;23.190;2023-05-20T00:01:26;12.00;1.00
32215;DHT22;18708;53.124;23.190;2023-05-20T00:03:52;12.10;1.00
32215;DHT22;18708;53.124;23.190;2023-05-20T00:06:18;12.10;1.00
32215;DHT22;18708;53.124;23.190;2023-05-20T00:08:43;12.10;1.00
32215;DHT22;18708;53.124;23.190;2023-05-20T00:11:09;12.10;1.00
32215;DHT22;18708;53.124;23.190;2023-05-20T00:13:34;12.10;1.00
32215;DHT22;18708;53.124;23.190;2023-05-20T00:16:00;12.10;1.00
32215;DHT22;18708;53.124;23.190;2023-05-20T00:18:26;12.10;1.00
32215;DHT22;18708;53.124;23.190;2023-05-20T00:20:52;12.10;1.00
32215;DHT22;18708;53.124;23.190;2023-05-20T00:23:19;12.10;1.00
32215;DHT22;18708;53.124;23.190;2023-05-20T00:25:44;12.10;1.00
32215;DHT22;18708;53.124;23.190;2023-05-20T00:28:10;12.10;1.00
32215;DHT22;18708;53.124;23.190;2023-05-20T00:30:41;12.10;1.00
32215;DHT22;18708;53.124;23.190;2023-05-20T00:33:07;12.10;1.00
32215;DHT22;18708;53.124;23.190;2023-05-20T00:35:32;12.20;1.00
32215;DHT22;18708;53.124;23.190;2023-05-20T00:37:58;12.20;1.00
32215;DHT22;18708;53.124;23.190;2023-05-20T00:40:24;12.20;1.00
32215;DHT22;18708;53.124;23.190;2023-05-20T00:42:50;12.20;1.00
32215;DHT22;18708;53.124;23.190;2023-05-20T00:45:16;12.20;1.00
32215;DHT22;18708;53.124;23.190;2023-05-20T00:47:42;12.20;1.00
32215;DHT22;18708;53.124;23.190;2023-05-20T00:50:09;12.20;1.00
32215;DHT22;18708;53.124;23.190;2023-05-20T00:52:35;12.20;1.00
32215;DHT22;18708;53.124;23.190;2023-05-20T00:55:01;12.30;1.00
32215;DHT22;18708;53.124;23.190;2023-05-20T00:57:28;12.20;1.00
32215;DHT22;18708;53.124;23.190;2023-05-20T00:59:54;12.20;1.00
32215;DHT22;18708;53.124;23.190;2023-05-20T01:02:20;12.20;1.00
32215;DHT22;18708;53.124;23.190;2023-05-20T01:04:46;12.20;1.00
32215;DHT22;18708;53.124;23.190;2023-05-20T01:07:14;12.20;1.00
32215;DHT22;18708;53.124;23.190;2023-05-20T01:09:40;12.20;1.00
32215;DHT22;18708;53.124;23.190;2023-05-20T01:12:35;12.10;1.00
32215;DHT22;18708;53.124;23.190;2023-05-20T01:15:00;12.10;1.00
32215;DHT22;18708;53.124;23.190;2023-05-20T01:17:28;12.10;1.00
32215;DHT22;18708;53.124;23.190;2023-05-20T01:19:58;12.20;1.00
32215;DHT22;18708;53.124;23.190;2023-05-20T01:22:28;12.20;1.00
32215;DHT22;18708;53.124;23.190;2023-05-20T01:24:54;12.20;1.00
32215;DHT22;18708;53.124;23.190;2023-05-20T01:27:21;12.20;1.00
32215;DHT22;18708;53.124;23.190;2023-05-20T01:29:48;12.20;1.00
32215;DHT22;18708;53.124;23.190;2023-05-20T01:32:21;12.20;1.00
32215;DHT22;18708;53.124;23.190;2023-05-20T01:34:51;12.20;1.00
32215;DHT22;18708;53.124;23.190;2023-05-20T01:37:21;12.20;1.00
32215;DHT22;18708;53.124;23.190;2023-05-20T01:39:49;12.20;1.00
32215;DHT22;18708;53.124;23.190;2023-05-20T01:42:18;12.20;1.00
32215;DHT22;18708;53.124;23.190;2023-05-20T01:44:44;12.10;1.00
32215;DHT22;18708;53.124;23.190;2023-05-20T01:47:10;12.10;1.00
32215;DHT22;18708;53.124;23.190;2023-05-20T01:49:36;12.00;1.00
32215;DHT22;18708;53.124;23.190;2023-05-20T01:52:03;11.90;1.00
32215;DHT22;18708;53.124;23.190;2023-05-20T01:54:29;11.90;1.00
32215;DHT22;18708;53.124;23.190;2023-05-20T01:56:54;11.90;1.00
32215;DHT22;18708;53.124;23.190;2023-05-20T01:59:20;11.90;1.00
32215;DHT22;18708;53.124;23.190;2023-05-20T02:01:46;11.80;1.00
32215;DHT22;18708;53.124;23.190;2023-05-20T02:04:11;11.80;1.00
32215;DHT22;18708;53.124;23.190;2023-05-20T02:06:37;11.70;1.00
32215;DHT22;18708;53.124;23.190;2023-05-20T02:09:03;11.60;1.00
32215;DHT22;18708;53.124;23.190;2023-05-20T02:11:28;11.50;1.00
32215;DHT22;18708;53.124;23.190;2023-05-20T02:13:54;11.40;1.00
32215;DHT22;18708;53.124;23.190;2023-05-20T02:16:20;11.40;1.00
32215;DHT22;18708;53.124;23.190;2023-05-20T02:18:48;11.30;1.00
32215;DHT22;18708;53.124;23.190;2023-05-20T02:21:15;11.20;1.00
32215;DHT22;18708;53.124;23.190;2023-05-20T02:23:41;11.10;1.00
32215;DHT22;18708;53.124;23.190;2023-05-20T02:26:07;11.00;30.40
32215;DHT22;18708;53.124;23.190;2023-05-20T02:28:33;11.00;99.90
32215;DHT22;18708;53.124;23.190;2023-05-20T02:30:59;10.90;99.90
32215;DHT22;18708;53.124;23.190;2023-05-20T02:33:24;10.80;99.90
32215;DHT22;18708;53.124;23.190;2023-05-20T02:35:53;10.70;99.90
32215;DHT22;18708;53.124;23.190;2023-05-20T02:38:19;10.60;1.00
32215;DHT22;18708;53.124;23.190;2023-05-20T02:40:45;10.50;1.00
32215;DHT22;18708;53.124;23.190;2023-05-20T02:43:10;10.20;99.90
32215;DHT22;18708;53.124;23.190;2023-05-20T02:45:36;10.10;99.90
32215;DHT22;18708;53.124;23.190;2023-05-20T02:48:01;10.10;99.90
32215;DHT22;18708;53.124;23.190;2023-05-20T02:50:27;10.10;99.90
32215;DHT22;18708;53.124;23.190;2023-05-20T02:52:53;10.10;99.90
32215;DHT22;18708;53.124;23.190;2023-05-20T02:55:18;10.00;99.90
32215;DHT22;18708;53.124;23.190;2023-05-20T02:57:44;10.00;1.00
32215;DHT22;18708;53.124;23.190;2023-05-20T03:00:10;9.90;99.90
32215;DHT22;18708;53.124;23.190;2023-05-20T03:02:37;9.90;1.00
32215;DHT22;18708;53.124;23.190;2023-05-20T03:05:03;9.90;99.90
32215;DHT22;18708;53.124;23.190;2023-05-20T03:07:30;9.90;99.90
32215;DHT22;18708;53.124;23.190;2023-05-20T03:09:56;10.00;99.90
32215;DHT22;18708;53.124;23.190;2023-05-20T03:12:24;10.00;99.90
32215;DHT22;18708;53.124;23.190;2023-05-20T03:14:51;10.00;1.00
32215;DHT22;18708;53.124;23.190;2023-05-20T03:17:22;10.00;99.90
32215;DHT22;18708;53.124;23.190;2023-05-20T03:19:47;10.10;99.90
32215;DHT22;18708;53.124;23.190;2023-05-20T03:22:13;10.10;99.90
32215;DHT22;18708;53.124;23.190;2023-05-20T03:24:38;10.20;99.90
32215;DHT22;18708;53.124;23.190;2023-05-20T03:27:05;10.30;1.00
32215;DHT22;18708;53.124;23.190;2023-05-20T03:29:31;10.40;1.00
32215;DHT22;18708;53.124;23.190;2023-05-20T03:31:58;10.50;99.90
32215;DHT22;18708;53.124;23.190;2023-05-20T03:34:23;10.60;1.00
32215;DHT22;18708;53.124;23.190;2023-05-20T03:36:50;10.60;1.00
32215;DHT22;18708;53.124;23.190;2023-05-20T03:39:16;10.70;1.00
32215;DHT22;18708;53.124;23.190;2023-05-20T03:41:41;10.70;1.00
32215;DHT22;18708;53.124;23.190;2023-05-20T03:44:07;10.80;99.90
32215;DHT22;18708;53.124;23.190;2023-05-20T03:46:33;10.90;99.90
32215;DHT22;18708;53.124;23.190;2023-05-20T03:48:59;10.90;99.90
32215;DHT22;18708;53.124;23.190;2023-05-20T03:51:26;11.00;99.90
32215;DHT22;18708;53.124;23.190;2023-05-20T03:53:52;11.10;99.90
32215;DHT22;18708;53.124;23.190;2023-05-20T03:56:18;11.20;99.90
32215;DHT22;18708;53.124;23.190;2023-05-20T03:58:43;11.30;1.00
32215;DHT22;18708;53.124;23.190;2023-05-20T04:01:09;11.40;99.90
32215;DHT22;18708;53.124;23.190;2023-05-20T04:03:37;11.50;99.90
32215;DHT22;18708;53.124;23.190;2023-05-20T04:06:03;11.60;1.00
32215;DHT22;18708;53.124;23.190;2023-05-20T04:08:29;11.60;1.00
32215;DHT22;18708;53.124;23.190;2023-05-20T04:10:55;11.70;1.00
32215;DHT22;18708;53.124;23.190;2023-05-20T04:13:23;11.80;6.70
32215;DHT22;18708;53.124;23.190;2023-05-20T04:15:50;11.80;8.00
32215;DHT22;18708;53.124;23.190;2023-05-20T04:18:17;11.80;99.90
32215;DHT22;18708;53.124;23.190;2023-05-20T04:20:44;11.90;1.00
32215;DHT22;18708;53.124;23.190;2023-05-20T04:23:09;12.00;1.00
32215;DHT22;18708;53.124;23.190;2023-05-20T04:25:35;12.00;1.00
32215;DHT22;18708;53.124;23.190;2023-05-20T04:28:01;12.00;1.00
32215;DHT22;18708;53.124;23.190;2023-05-20T04:30:26;12.10;1.00
32215;DHT22;18708;53.124;23.190;2023-05-20T04:32:53;12.20;1.00
32215;DHT22;18708;53.124;23.190;2023-05-20T04:35:19;12.20;1.00
32215;DHT22;18708;53.124;23.190;2023-05-20T04:37:44;12.20;1.00
32215;DHT22;18708;53.124;23.190;2023-05-20T04:40:12;12.20;1.00
32215;DHT22;18708;53.124;23.190;2023-05-20T04:42:38;12.30;1.00
32215;DHT22;18708;53.124;23.190;2023-05-20T04:45:04;12.30;1.00
32215;DHT22;18708;53.124;23.190;2023-05-20T04:47:33;12.40;1.00
32215;DHT22;18708;53.124;23.190;2023-05-20T04:50:09;12.50;1.00
32215;DHT22;18708;53.124;23.190;2023-05-20T04:52:36;12.50;1.00
32215;DHT22;18708;53.124;23.190;2023-05-20T04:55:04;12.60;1.00
32215;DHT22;18708;53.124;23.190;2023-05-20T04:57:30;12.60;1.00
32215;DHT22;18708;53.124;23.190;2023-05-20T04:59:59;12.60;1.00
32215;DHT22;18708;53.124;23.190;2023-05-20T05:02:24;12.70;1.00
32215;DHT22;18708;53.124;23.190;2023-05-20T05:04:50;12.80;1.00
32215;DHT22;18708;53.124;23.190;2023-05-20T05:07:16;12.90;1.00
32215;DHT22;18708;53.124;23.190;2023-05-20T05:09:42;13.00;1.00
32215;DHT22;18708;53.124;23.190;2023-05-20T05:12:07;13.10;1.00
32215;DHT22;18708;53.124;23.190;2023-05-20T05:14:33;13.10;1.00
32215;DHT22;18708;53.124;23.190;2023-05-20T05:17:01;13.20;1.00
32215;DHT22;18708;53.124;23.190;2023-05-20T05:19:26;13.30;1.00
32215;DHT22;18708;53.124;23.190;2023-05-20T05:21:52;13.50;1.00
32215;DHT22;18708;53.124;23.190;2023-05-20T05:24:18;13.60;1.00
32215;DHT22;18708;53.124;23.190;2023-05-20T05:26:43;13.90;1.00
32215;DHT22;18708;53.124;23.190;2023-05-20T05:29:09;14.20;99.90
32215;DHT22;18708;53.124;23.190;2023-05-20T05:31:35;14.50;99.90
32215;DHT22;18708;53.124;23.190;2023-05-20T05:34:00;14.60;99.90
32215;DHT22;18708;53.124;23.190;2023-05-20T05:36:26;14.80;99.90
32215;DHT22;18708;53.124;23.190;2023-05-20T05:38:52;15.00;99.90
32215;DHT22;18708;53.124;23.190;2023-05-20T05:41:17;15.10;99.90
32215;DHT22;18708;53.124;23.190;2023-05-20T05:43:43;15.30;99.90
32215;DHT22;18708;53.124;23.190;2023-05-20T05:46:08;15.40;99.90
32215;DHT22;18708;53.124;23.190;2023-05-20T05:48:35;15.50;58.80
32215;DHT22;18708;53.124;23.190;2023-05-20T05:51:01;15.60;1.00
32215;DHT22;18708;53.124;23.190;2023-05-20T05:53:27;15.90;1.00
32215;DHT22;18708;53.124;23.190;2023-05-20T05:55:53;16.00;1.00
32215;DHT22;18708;53.124;23.190;2023-05-20T05:58:18;16.20;1.00
32215;DHT22;18708;53.124;23.190;2023-05-20T06:00:44;16.40;1.00
32215;DHT22;18708;53.124;23.190;2023-05-20T06:03:09;16.60;1.00
32215;DHT22;18708;53.124;23.190;2023-05-20T06:05:35;16.80;1.00
32215;DHT22;18708;53.124;23.190;2023-05-20T06:08:01;17.00;1.00
32215;DHT22;18708;53.124;23.190;2023-05-20T06:10:27;17.20;1.00
32215;DHT22;18708;53.124;23.190;2023-05-20T06:12:52;17.30;1.00
32215;DHT22;18708;53.124;23.190;2023-05-20T06:15:18;17.70;1.00
32215;DHT22;18708;53.124;23.190;2023-05-20T06:17:44;17.90;1.00
32215;DHT22;18708;53.124;23.190;2023-05-20T06:20:10;18.30;1.00
32215;DHT22;18708;53.124;23.190;2023-05-20T06:22:36;18.40;1.00
32215;DHT22;18708;53.124;23.190;2023-05-20T06:25:02;18.20;1.00
32215;DHT22;18708;53.124;23.190;2023-05-20T06:27:28;18.30;1.00
32215;DHT22;18708;53.124;23.190;2023-05-20T06:29:55;18.70;1.00
32215;DHT22;18708;53.124;23.190;2023-05-20T06:32:21;18.70;1.00
32215;DHT22;18708;53.124;23.190;2023-05-20T06:34:47;19.00;1.00
32215;DHT22;18708;53.124;23.190;2023-05-20T06:37:12;19.30;1.00
32215;DHT22;18708;53.124;23.190;2023-05-20T06:39:38;19.10;1.00
32215;DHT22;18708;53.124;23.190;2023-05-20T06:42:04;19.00;1.00
32215;DHT22;18708;53.124;23.190;2023-05-20T06:44:30;19.10;1.00
32215;DHT22;18708;53.124;23.190;2023-05-20T06:46:55;19.50;1.00
32215;DHT22;18708;53.124;23.190;2023-05-20T06:49:21;20.20;1.00
32215;DHT22;18708;53.124;23.190;2023-05-20T06:51:48;19.90;99.90
32215;DHT22;18708;53.124;23.190;2023-05-20T06:54:14;19.60;1.00
32215;DHT22;18708;53.124;23.190;2023-05-20T06:56:39;20.30;1.00
32215;DHT22;18708;53.124;23.190;2023-05-20T06:59:05;20.50;1.00
32215;DHT22;18708;53.124;23.190;2023-05-20T07:01:30;21.00;1.00
32215;DHT22;18708;53.124;23.190;2023-05-20T07:03:56;20.90;99.90
32215;DHT22;18708;53.124;23.190;2023-05-20T07:06:22;21.00;99.90
32215;DHT22;18708;53.124;23.190;2023-05-20T07:08:48;21.40;99.90
32215;DHT22;18708;53.124;23.190;2023-05-20T07:11:13;21.60;99.90
32215;DHT22;18708;53.124;23.190;2023-05-20T07:13:39;21.10;99.90
32215;DHT22;18708;53.124;23.190;2023-05-20T07:16:05;21.10;99.90
32215;DHT22;18708;53.124;23.190;2023-05-20T07:18:30;21.00;99.90
32215;DHT22;18708;53.124;23.190;2023-05-20T07:20:56;21.10;99.90
32215;DHT22;18708;53.124;23.190;2023-05-20T07:23:22;21.40;99.90
32215;DHT22;18708;53.124;23.190;2023-05-20T07:25:48;21.00;99.90
32215;DHT22;18708;53.124;23.190;2023-05-20T07:28:17;21.30;99.90
32215;DHT22;18708;53.124;23.190;2023-05-20T07:30:43;21.60;99.90
32215;DHT22;18708;53.124;23.190;2023-05-20T07:33:15;21.30;99.90
32215;DHT22;18708;53.124;23.190;2023-05-20T07:35:41;21.50;99.90
32215;DHT22;18708;53.124;23.190;2023-05-20T07:38:07;22.30;99.90
32215;DHT22;18708;53.124;23.190;2023-05-20T07:40:32;22.40;99.90
32215;DHT22;18708;53.124;23.190;2023-05-20T07:42:58;22.60;99.90
32215;DHT22;18708;53.124;23.190;2023-05-20T07:45:24;22.60;99.90
32215;DHT22;18708;53.124;23.190;2023-05-20T07:47:50;22.60;99.90
32215;DHT22;18708;53.124;23.190;2023-05-20T07:50:15;22.60;99.90
32215;DHT22;18708;53.124;23.190;2023-05-20T07:52:41;23.10;99.90
32215;DHT22;18708;53.124;23.190;2023-05-20T07:55:07;22.40;99.90
32215;DHT22;18708;53.124;23.190;2023-05-20T07:57:33;22.30;99.90
32215;DHT22;18708;53.124;23.190;2023-05-20T07:59:58;22.30;99.90
32215;DHT22;18708;53.124;23.190;2023-05-20T08:02:24;22.30;99.90
32215;DHT22;18708;53.124;23.190;2023-05-20T08:04:50;22.90;99.90
32215;DHT22;18708;53.124;23.190;2023-05-20T08:07:15;23.10;99.90
32215;DHT22;18708;53.124;23.190;2023-05-20T08:09:41;23.00;99.90
32215;DHT22;18708;53.124;23.190;2023-05-20T08:12:07;23.10;99.90
32215;DHT22;18708;53.124;23.190;2023-05-20T08:14:33;23.10;99.90
32215;DHT22;18708;53.124;23.190;2023-05-20T08:16:59;23.10;99.90
32215;DHT22;18708;53.124;23.190;2023-05-20T08:19:24;23.30;99.90
32215;DHT22;18708;53.124;23.190;2023-05-20T08:21:50;23.50;99.90
32215;DHT22;18708;53.124;23.190;2023-05-20T08:24:16;22.40;70.50
32215;DHT22;18708;53.124;23.190;2023-05-20T08:26:42;23.00;99.90
32215;DHT22;18708;53.124;23.190;2023-05-20T08:29:07;23.50;99.90
32215;DHT22;18708;53.124;23.190;2023-05-20T08:31:33;23.50;99.70
32215;DHT22;18708;53.124;23.190;2023-05-20T08:33:58;23.80;97.00
32215;DHT22;18708;53.124;23.190;2023-05-20T08:36:24;23.50;56.90
32215;DHT22;18708;53.124;23.190;2023-05-20T08:38:50;23.70;52.10
32215;DHT22;18708;53.124;23.190;2023-05-20T08:41:16;24.00;54.10
32215;DHT22;18708;53.124;23.190;2023-05-20T08:43:43;24.00;25.10
32215;DHT22;18708;53.124;23.190;2023-05-20T08:46:09;23.50;32.80
32215;DHT22;18708;53.124;23.190;2023-05-20T08:48:36;23.60;49.90
32215;DHT22;18708;53.124;23.190;2023-05-20T08:51:02;23.70;29.60
32215;DHT22;18708;53.124;23.190;2023-05-20T08:53:28;23.90;37.00
32215;DHT22;18708;53.124;23.190;2023-05-20T08:55:56;24.20;82.70
32215;DHT22;18708;53.124;23.190;2023-05-20T08:58:24;24.10;1.00
32215;DHT22;18708;53.124;23.190;2023-05-20T09:00:50;24.50;24.00
32215;DHT22;18708;53.124;23.190;2023-05-20T09:03:17;24.20;11.30
32215;DHT22;18708;53.124;23.190;2023-05-20T09:05:45;24.90;89.90
32215;DHT22;18708;53.124;23.190;2023-05-20T09:08:11;25.10;57.00
32215;DHT22;18708;53.124;23.190;2023-05-20T09:10:38;25.40;24.10
32215;DHT22;18708;53.124;23.190;2023-05-20T09:13:05;25.00;3.30
32215;DHT22;18708;53.124;23.190;2023-05-20T09:15:32;24.50;1.00
32215;DHT22;18708;53.124;23.190;2023-05-20T09:18:02;25.10;1.00
32215;DHT22;18708;53.124;23.190;2023-05-20T09:20:28;24.80;1.00
32215;DHT22;18708;53.124;23.190;2023-05-20T09:23:02;24.80;1.00
32215;DHT22;18708;53.124;23.190;2023-05-20T09:25:28;25.20;1.00
32215;DHT22;18708;53.124;23.190;2023-05-20T09:27:54;24.70;1.00
32215;DHT22;18708;53.124;23.190;2023-05-20T09:30:20;25.70;57.70
32215;DHT22;18708;53.124;23.190;2023-05-20T09:32:56;25.80;1.00
32215;DHT22;18708;53.124;23.190;2023-05-20T09:35:23;25.60;23.60
32215;DHT22;18708;53.124;23.190;2023-05-20T09:37:53;25.80;1.00
32215;DHT22;18708;53.124;23.190;2023-05-20T09:40:24;25.50;1.00
32215;DHT22;18708;53.124;23.190;2023-05-20T09:42:53;24.80;1.00
32215;DHT22;18708;53.124;23.190;2023-05-20T09:45:21;25.40;11.40
32215;DHT22;18708;53.124;23.190;2023-05-20T09:47:52;24.90;5.80
32215;DHT22;18708;53.124;23.190;2023-05-20T09:50:20;24.90;2.40
32215;DHT22;18708;53.124;23.190;2023-05-20T09:52:50;25.00;1.00
32215;DHT22;18708;53.124;23.190;2023-05-20T09:55:20;24.90;1.00
32215;DHT22;18708;53.124;23.190;2023-05-20T09:57:46;25.50;1.00
32215;DHT22;18708;53.124;23.190;2023-05-20T10:00:14;26.30;6.60
32215;DHT22;18708;53.124;23.190;2023-05-20T10:02:51;25.80;1.00
32215;DHT22;18708;53.124;23.190;2023-05-20T10:05:22;25.80;1.00
32215;DHT22;18708;53.124;23.190;2023-05-20T10:08:22;26.70;1.00
32215;DHT22;18708;53.124;23.190;2023-05-20T10:11:16;26.40;1.00
32215;DHT22;18708;53.124;23.190;2023-05-20T10:21:36;25.80;1.00
32215;DHT22;18708;53.124;23.190;2023-05-20T10:24:06;25.80;1.00
32215;DHT22;18708;53.124;23.190;2023-05-20T10:26:40;25.60;1.00
32215;DHT22;18708;53.124;23.190;2023-05-20T10:29:16;26.50;1.00
32215;DHT22;18708;53.124;23.190;2023-05-20T10:31:50;26.00;1.00
32215;DHT22;18708;53.124;23.190;2023-05-20T10:34:20;26.00;1.00
32215;DHT22;18708;53.124;23.190;2023-05-20T10:36:57;25.80;1.00
32215;DHT22;18708;53.124;23.190;2023-05-20T10:39:30;26.50;1.00
32215;DHT22;18708;53.124;23.190;2023-05-20T10:42:08;26.00;1.00
32215;DHT22;18708;53.124;23.190;2023-05-20T10:44:44;26.10;1.00
32215;DHT22;18708;53.124;23.190;2023-05-20T10:47:11;26.10;1.00
32215;DHT22;18708;53.124;23.190;2023-05-20T10:49:44;26.70;1.00
32215;DHT22;18708;53.124;23.190;2023-05-20T10:52:13;26.30;1.00
32215;DHT22;18708;53.124;23.190;2023-05-20T10:54:53;26.70;1.00
32215;DHT22;18708;53.124;23.190;2023-05-20T10:57:19;27.30;1.00
32215;DHT22;18708;53.124;23.190;2023-05-20T10:59:46;27.60;1.00
32215;DHT22;18708;53.124;23.190;2023-05-20T11:02:14;27.40;1.00
32215;DHT22;18708;53.124;23.190;2023-05-20T11:04:45;26.60;1.00
32215;DHT22;18708;53.124;23.190;2023-05-20T11:07:11;26.40;1.00
32215;DHT22;18708;53.124;23.190;2023-05-20T11:09:38;26.20;1.00
32215;DHT22;18708;53.124;23.190;2023-05-20T11:12:04;26.00;1.00
32215;DHT22;18708;53.124;23.190;2023-05-20T11:14:30;26.60;1.00
32215;DHT22;18708;53.124;23.190;2023-05-20T11:16:57;26.80;1.00
32215;DHT22;18708;53.124;23.190;2023-05-20T11:19:24;27.20;1.00
32215;DHT22;18708;53.124;23.190;2023-05-20T11:21:51;27.20;1.00
32215;DHT22;18708;53.124;23.190;2023-05-20T11:24:26;26.90;1.00
32215;DHT22;18708;53.124;23.190;2023-05-20T11:26:56;26.50;1.00
32215;DHT22;18708;53.124;23.190;2023-05-20T11:29:22;25.90;1.00
32215;DHT22;18708;53.124;23.190;2023-05-20T11:31:49;26.50;1.00
32215;DHT22;18708;53.124;23.190;2023-05-20T11:34:20;27.10;1.00
32215;DHT22;18708;53.124;23.190;2023-05-20T11:36:47;28.10;1.00
32215;DHT22;18708;53.124;23.190;2023-05-20T11:39:15;29.10;1.00
32215;DHT22;18708;53.124;23.190;2023-05-20T11:41:41;27.40;1.00
32215;DHT22;18708;53.124;23.190;2023-05-20T11:44:11;26.30;1.00
32215;DHT22;18708;53.124;23.190;2023-05-20T11:46:44;26.50;1.00
32215;DHT22;18708;53.124;23.190;2023-05-20T11:49:12;25.80;1.00
32215;DHT22;18708;53.124;23.190;2023-05-20T11:51:38;25.40;1.00
32215;DHT22;18708;53.124;23.190;2023-05-20T11:54:06;25.60;1.00
32215;DHT22;18708;53.124;23.190;2023-05-20T11:56:35;25.90;1.00
32215;DHT22;18708;53.124;23.190;2023-05-20T11:59:02;25.70;1.00
32215;DHT22;18708;53.124;23.190;2023-05-20T12:01:38;25.50;1.00
32215;DHT22;18708;53.124;23.190;2023-05-20T12:04:11;25.90;1.00
32215;DHT22;18708;53.124;23.190;2023-05-20T12:06:40;26.00;1.00
32215;DHT22;18708;53.124;23.190;2023-05-20T12:09:09;26.70;1.00
32215;DHT22;18708;53.124;23.190;2023-05-20T12:11:39;27.10;1.00
32215;DHT22;18708;53.124;23.190;2023-05-20T12:14:06;25.50;1.00
32215;DHT22;18708;53.124;23.190;2023-05-20T12:16:33;25.40;1.00
32215;DHT22;18708;53.124;23.190;2023-05-20T12:19:00;25.40;1.00
32215;DHT22;18708;53.124;23.190;2023-05-20T12:21:26;26.30;1.00
32215;DHT22;18708;53.124;23.190;2023-05-20T12:23:54;26.50;1.00
32215;DHT22;18708;53.124;23.190;2023-05-20T12:26:24;27.00;1.00
32215;DHT22;18708;53.124;23.190;2023-05-20T12:28:51;26.60;1.00
32215;DHT22;18708;53.124;23.190;2023-05-20T12:31:17;26.00;1.00
32215;DHT22;18708;53.124;23.190;2023-05-20T12:33:43;26.60;1.00
32215;DHT22;18708;53.124;23.190;2023-05-20T12:36:09;26.90;1.00
32215;DHT22;18708;53.124;23.190;2023-05-20T12:38:34;26.30;1.00
32215;DHT22;18708;53.124;23.190;2023-05-20T12:41:00;26.60;1.00
32215;DHT22;18708;53.124;23.190;2023-05-20T12:43:29;26.70;1.00
32215;DHT22;18708;53.124;23.190;2023-05-20T12:45:54;26.30;1.00
32215;DHT22;18708;53.124;23.190;2023-05-20T12:48:20;26.40;1.00
32215;DHT22;18708;53.124;23.190;2023-05-20T12:50:46;25.90;1.00
32215;DHT22;18708;53.124;23.190;2023-05-20T12:53:14;25.30;1.00
32215;DHT22;18708;53.124;23.190;2023-05-20T12:55:39;25.10;1.00
32215;DHT22;18708;53.124;23.190;2023-05-20T12:58:08;26.00;1.00
32215;DHT22;18708;53.124;23.190;2023-05-20T13:00:34;25.80;1.00
32215;DHT22;18708;53.124;23.190;2023-05-20T13:03:02;26.00;1.00
32215;DHT22;18708;53.124;23.190;2023-05-20T13:05:28;26.00;1.00
32215;DHT22;18708;53.124;23.190;2023-05-20T13:07:53;25.60;1.00
32215;DHT22;18708;53.124;23.190;2023-05-20T13:10:19;25.50;1.00
32215;DHT22;18708;53.124;23.190;2023-05-20T13:12:45;25.70;1.00
32215;DHT22;18708;53.124;23.190;2023-05-20T13:15:12;25.50;1.00
32215;DHT22;18708;53.124;23.190;2023-05-20T13:17:39;24.60;1.00
32215;DHT22;18708;53.124;23.190;2023-05-20T13:20:05;24.90;1.00
32215;DHT22;18708;53.124;23.190;2023-05-20T13:22:32;24.70;1.00
32215;DHT22;18708;53.124;23.190;2023-05-20T13:24:58;24.90;1.00
32215;DHT22;18708;53.124;23.190;2023-05-20T13:27:23;24.70;1.00
32215;DHT22;18708;53.124;23.190;2023-05-20T13:29:49;24.00;1.00
32215;DHT22;18708;53.124;23.190;2023-05-20T13:32:17;23.70;1.00
32215;DHT22;18708;53.124;23.190;2023-05-20T13:34:43;23.30;1.00
32215;DHT22;18708;53.124;23.190;2023-05-20T13:37:09;23.30;1.00
32215;DHT22;18708;53.124;23.190;2023-05-20T13:39:34;23.70;1.00
32215;DHT22;18708;53.124;23.190;2023-05-20T13:42:00;24.00;1.00
32215;DHT22;18708;53.124;23.190;2023-05-20T13:44:26;24.40;1.00
32215;DHT22;18708;53.124;23.190;2023-05-20T13:46:52;24.30;1.00
32215;DHT22;18708;53.124;23.190;2023-05-20T13:49:20;24.00;1.00
32215;DHT22;18708;53.124;23.190;2023-05-20T13:51:45;24.10;1.00
32215;DHT22;18708;53.124;23.190;2023-05-20T13:54:13;23.90;1.00
32215;DHT22;18708;53.124;23.190;2023-05-20T13:56:39;24.00;1.00
32215;DHT22;18708;53.124;23.190;2023-05-20T13:59:05;24.10;1.00
32215;DHT22;18708;53.124;23.190;2023-05-20T14:01:31;24.10;1.00
32215;DHT22;18708;53.124;23.190;2023-05-20T14:03:59;24.30;1.00
32215;DHT22;18708;53.124;23.190;2023-05-20T14:06:26;24.30;1.00
32215;DHT22;18708;53.124;23.190;2023-05-20T14:08:55;24.20;1.00
32215;DHT22;18708;53.124;23.190;2023-05-20T14:11:20;23.80;1.00
32215;DHT22;18708;53.124;23.190;2023-05-20T14:13:46;24.20;1.00
32215;DHT22;18708;53.124;23.190;2023-05-20T14:16:12;24.40;1.00
32215;DHT22;18708;53.124;23.190;2023-05-20T14:18:38;24.40;1.00
32215;DHT22;18708;53.124;23.190;2023-05-20T14:21:04;23.80;1.00
32215;DHT22;18708;53.124;23.190;2023-05-20T14:23:29;23.90;1.00
32215;DHT22;18708;53.124;23.190;2023-05-20T14:25:55;24.10;1.00
32215;DHT22;18708;53.124;23.190;2023-05-20T14:28:21;24.20;1.00
32215;DHT22;18708;53.124;23.190;2023-05-20T14:30:46;23.90;1.00
32215;DHT22;18708;53.124;23.190;2023-05-20T14:33:12;23.50;1.00
32215;DHT22;18708;53.124;23.190;2023-05-20T14:35:40;23.60;1.00
32215;DHT22;18708;53.124;23.190;2023-05-20T14:38:06;23.50;1.00
32215;DHT22;18708;53.124;23.190;2023-05-20T14:40:31;23.60;1.00
32215;DHT22;18708;53.124;23.190;2023-05-20T14:42:57;23.80;1.00
32215;DHT22;18708;53.124;23.190;2023-05-20T14:45:22;23.90;1.00
32215;DHT22;18708;53.124;23.190;2023-05-20T14:47:48;23.90;1.00
32215;DHT22;18708;53.124;23.190;2023-05-20T14:50:14;23.90;1.00
32215;DHT22;18708;53.124;23.190;2023-05-20T14:52:39;23.50;1.00
32215;DHT22;18708;53.124;23.190;2023-05-20T14:55:05;23.40;1.00
32215;DHT22;18708;53.124;23.190;2023-05-20T14:57:32;23.40;1.00
32215;DHT22;18708;53.124;23.190;2023-05-20T14:59:58;23.50;1.00
32215;DHT22;18708;53.124;23.190;2023-05-20T15:02:23;23.40;1.00
32215;DHT22;18708;53.124;23.190;2023-05-20T15:04:49;23.10;1.00
32215;DHT22;18708;53.124;23.190;2023-05-20T15:07:15;23.30;1.00
32215;DHT22;18708;53.124;23.190;2023-05-20T15:09:41;23.40;1.00
32215;DHT22;18708;53.124;23.190;2023-05-20T15:12:09;23.40;1.00
32215;DHT22;18708;53.124;23.190;2023-05-20T15:14:35;23.20;1.00
32215;DHT22;18708;53.124;23.190;2023-05-20T15:17:02;22.90;1.00
32215;DHT22;18708;53.124;23.190;2023-05-20T15:19:30;22.70;1.00
32215;DHT22;18708;53.124;23.190;2023-05-20T15:21:55;22.70;1.00
32215;DHT22;18708;53.124;23.190;2023-05-20T15:24:21;22.70;1.00
32215;DHT22;18708;53.124;23.190;2023-05-20T15:26:47;22.90;1.00
32215;DHT22;18708;53.124;23.190;2023-05-20T15:29:12;22.70;1.00
32215;DHT22;18708;53.124;23.190;2023-05-20T15:31:38;22.50;1.00
32215;DHT22;18708;53.124;23.190;2023-05-20T15:34:04;22.40;1.00